createdAt,value
2018-12-26T00:00:04.394Z,1.1
2018-12-26T00:01:03.836Z,0
2018-12-26T00:02:03.393Z,0
2018-12-26T00:03:03.663Z,0
2018-12-26T00:04:03.366Z,0
2018-12-26T00:05:03.397Z,0
2018-12-26T00:06:03.264Z,1.1
2018-12-26T00:07:03.590Z,0
2018-12-26T00:08:03.975Z,0
2018-12-26T00:09:03.457Z,0
2018-12-26T00:10:03.172Z,1.1
2018-12-26T00:11:03.211Z,1.1
2018-12-26T00:12:03.452Z,2.5
2018-12-26T00:13:03.269Z,2.5
2018-12-26T00:14:03.201Z,2.5
2018-12-26T00:15:03.638Z,1.1
2018-12-26T00:16:03.477Z,2.5
2018-12-26T00:17:03.951Z,2.5
2018-12-26T00:18:03.376Z,2.5
2018-12-26T00:19:03.090Z,2.5
2018-12-26T00:20:05.297Z,2.5
2018-12-26T00:21:03.119Z,2.5
2018-12-26T00:22:03.478Z,2.5
2018-12-26T00:23:03.852Z,3.6
2018-12-26T00:24:04.148Z,3.6
2018-12-26T00:25:03.612Z,3.6
2018-12-26T00:26:03.281Z,3.6
2018-12-26T00:27:06.283Z,3.6
2018-12-26T00:28:03.879Z,3.6
2018-12-26T00:29:03.631Z,3.6
2018-12-26T00:30:03.509Z,3.6
2018-12-26T00:31:03.737Z,3.6
2018-12-26T00:32:03.827Z,2.5
2018-12-26T00:33:03.128Z,2.5
2018-12-26T00:34:03.965Z,2.5
2018-12-26T00:35:03.111Z,2.5
2018-12-26T00:36:04.054Z,2.5
2018-12-26T00:37:04.253Z,2.5
2018-12-26T00:38:03.920Z,1.1
2018-12-26T00:39:03.319Z,1.1
2018-12-26T00:40:03.668Z,1.1
2018-12-26T00:41:03.694Z,0
2018-12-26T00:42:03.066Z,2.5
2018-12-26T00:43:03.084Z,2.5
2018-12-26T00:44:03.291Z,2.5
2018-12-26T00:45:03.025Z,2.5
2018-12-26T00:46:03.732Z,0
2018-12-26T00:47:03.408Z,2.5
2018-12-26T00:48:03.892Z,0
2018-12-26T00:49:04.058Z,1.1
2018-12-26T00:50:04.060Z,1.1
2018-12-26T00:51:03.655Z,1.1
2018-12-26T00:52:03.463Z,1.1
2018-12-26T00:53:03.327Z,1.1
2018-12-26T00:54:03.724Z,2.5
2018-12-26T00:55:03.387Z,2.5
2018-12-26T00:56:11.042Z,2.5
2018-12-26T00:57:03.138Z,2.5
2018-12-26T00:58:03.414Z,2.5
2018-12-26T00:59:02.971Z,1.1
2018-12-26T01:00:03.718Z,1.1
2018-12-26T01:01:03.516Z,1.1
2018-12-26T01:02:03.204Z,1.1
2018-12-26T01:03:03.140Z,1.1
2018-12-26T01:04:03.628Z,0
2018-12-26T01:05:03.512Z,0
2018-12-26T01:06:03.809Z,1.1
2018-12-26T01:07:03.976Z,0
2018-12-26T01:08:03.527Z,0
2018-12-26T01:09:03.098Z,0
2018-12-26T01:10:03.341Z,1.1
2018-12-26T01:11:03.852Z,1.1
2018-12-26T01:12:03.836Z,1.1
2018-12-26T01:13:03.164Z,2.5
2018-12-26T01:14:03.957Z,2.5
2018-12-26T01:15:03.279Z,3.6
2018-12-26T01:16:03.971Z,2.5
2018-12-26T01:17:03.734Z,2.5
2018-12-26T01:18:03.332Z,2.5
2018-12-26T01:19:02.987Z,3.6
2018-12-26T01:20:04.243Z,3.6
2018-12-26T01:21:03.942Z,6.1
2018-12-26T01:22:03.081Z,2.5
2018-12-26T01:23:04.220Z,1.1
2018-12-26T01:24:03.433Z,1.1
2018-12-26T01:25:03.601Z,3.6
2018-12-26T01:26:03.191Z,2.5
2018-12-26T01:27:04.664Z,3.6
2018-12-26T01:28:02.980Z,3.6
2018-12-26T01:29:03.724Z,3.6
2018-12-26T01:30:03.273Z,2.5
2018-12-26T01:31:03.383Z,3.6
2018-12-26T01:32:03.319Z,5
2018-12-26T01:33:04.385Z,5
2018-12-26T01:34:03.291Z,5
2018-12-26T01:35:03.082Z,2.5
2018-12-26T01:36:02.947Z,2.5
2018-12-26T01:37:03.340Z,6.1
2018-12-26T01:38:03.434Z,5
2018-12-26T01:39:03.841Z,6.1
2018-12-26T01:40:03.352Z,5
2018-12-26T01:41:04.870Z,5
2018-12-26T01:42:02.910Z,5
2018-12-26T01:43:03.823Z,3.6
2018-12-26T01:44:03.759Z,3.6
2018-12-26T01:45:03.792Z,5
2018-12-26T01:46:03.339Z,5
2018-12-26T01:47:04.049Z,3.6
2018-12-26T01:48:03.601Z,3.6
2018-12-26T01:49:03.597Z,5
2018-12-26T01:50:03.141Z,5
2018-12-26T01:51:03.566Z,5
2018-12-26T01:52:03.218Z,5
2018-12-26T01:53:03.395Z,5
2018-12-26T01:54:04.005Z,5
2018-12-26T01:55:03.455Z,5
2018-12-26T01:56:03.168Z,5
2018-12-26T01:57:03.979Z,5
2018-12-26T01:58:03.158Z,5
2018-12-26T01:59:03.506Z,5
2018-12-26T02:00:03.945Z,3.6
2018-12-26T02:01:02.848Z,3.6
2018-12-26T02:02:03.114Z,2.5
2018-12-26T02:03:02.900Z,3.6
2018-12-26T02:04:03.803Z,3.6
2018-12-26T02:05:03.548Z,3.6
2018-12-26T02:06:03.402Z,5
2018-12-26T02:07:03.790Z,3.6
2018-12-26T02:08:03.667Z,5
2018-12-26T02:09:03.161Z,5
2018-12-26T02:10:03.773Z,5
2018-12-26T02:11:03.785Z,5
2018-12-26T02:12:03.543Z,3.6
2018-12-26T02:13:03.899Z,2.5
2018-12-26T02:14:03.699Z,3.6
2018-12-26T02:15:03.282Z,3.6
2018-12-26T02:16:03.710Z,5
2018-12-26T02:17:03.701Z,3.6
2018-12-26T02:18:04.222Z,3.6
2018-12-26T02:19:03.932Z,3.6
2018-12-26T02:20:03.342Z,3.6
2018-12-26T02:21:03.051Z,3.6
2018-12-26T02:22:03.559Z,2.5
2018-12-26T02:23:03.658Z,2.5
2018-12-26T02:24:03.894Z,2.5
2018-12-26T02:25:03.398Z,2.5
2018-12-26T02:26:03.599Z,1.1
2018-12-26T02:27:03.120Z,1.1
2018-12-26T02:28:03.805Z,2.5
2018-12-26T02:29:03.393Z,2.5
2018-12-26T02:30:02.964Z,2.5
2018-12-26T02:31:03.045Z,2.5
2018-12-26T02:32:03.356Z,1.1
2018-12-26T02:33:03.137Z,2.5
2018-12-26T02:34:03.343Z,3.6
2018-12-26T02:35:03.651Z,2.5
2018-12-26T02:36:03.571Z,3.6
2018-12-26T02:37:03.740Z,3.6
2018-12-26T02:38:03.252Z,1.1
2018-12-26T02:39:03.845Z,1.1
2018-12-26T02:40:03.204Z,3.6
2018-12-26T02:41:03.188Z,3.6
2018-12-26T02:42:03.076Z,3.6
2018-12-26T02:43:03.360Z,3.6
2018-12-26T02:44:03.598Z,3.6
2018-12-26T02:45:03.260Z,2.5
2018-12-26T02:46:03.404Z,6.1
2018-12-26T02:47:03.587Z,6.1
2018-12-26T02:48:03.097Z,6.1
2018-12-26T02:49:10.434Z,5
2018-12-26T02:50:03.635Z,5
2018-12-26T02:51:03.499Z,6.1
2018-12-26T02:52:03.493Z,5
2018-12-26T02:53:03.307Z,3.6
2018-12-26T02:54:03.360Z,3.6
2018-12-26T02:55:03.384Z,3.6
2018-12-26T02:56:03.681Z,3.6
2018-12-26T02:57:02.904Z,3.6
2018-12-26T02:58:03.089Z,3.6
2018-12-26T02:59:03.058Z,3.6
2018-12-26T03:00:03.618Z,2.5
2018-12-26T03:01:03.068Z,2.5
2018-12-26T03:02:03.169Z,2.5
2018-12-26T03:03:04.020Z,2.5
2018-12-26T03:04:03.134Z,2.5
2018-12-26T03:05:03.971Z,2.5
2018-12-26T03:06:03.701Z,2.5
2018-12-26T03:07:03.387Z,2.5
2018-12-26T03:08:03.539Z,2.5
2018-12-26T03:09:04.114Z,5
2018-12-26T03:10:03.288Z,5
2018-12-26T03:11:03.629Z,3.6
2018-12-26T03:12:03.832Z,5
2018-12-26T03:13:03.312Z,6.1
2018-12-26T03:14:03.765Z,3.6
2018-12-26T03:15:03.337Z,3.6
2018-12-26T03:16:03.456Z,3.6
2018-12-26T03:17:03.574Z,5
2018-12-26T03:18:03.249Z,6.1
2018-12-26T03:19:03.387Z,3.6
2018-12-26T03:20:04.093Z,3.6
2018-12-26T03:21:03.943Z,5
2018-12-26T03:22:03.538Z,5
2018-12-26T03:23:03.340Z,5
2018-12-26T03:24:03.568Z,5
2018-12-26T03:25:03.250Z,3.6
2018-12-26T03:26:03.945Z,3.6
2018-12-26T03:27:03.184Z,3.6
2018-12-26T03:28:03.122Z,3.6
2018-12-26T03:29:03.821Z,3.6
2018-12-26T03:30:03.385Z,3.6
2018-12-26T03:31:03.147Z,5
2018-12-26T03:32:03.499Z,5
2018-12-26T03:33:03.279Z,3.6
2018-12-26T03:34:03.665Z,5
2018-12-26T03:35:03.589Z,5
2018-12-26T03:36:03.011Z,3.6
2018-12-26T03:37:04.015Z,2.5
2018-12-26T03:38:03.913Z,3.6
2018-12-26T03:39:03.479Z,6.1
2018-12-26T03:40:03.835Z,5
2018-12-26T03:41:04.305Z,6.1
2018-12-26T03:42:03.598Z,2.5
2018-12-26T03:43:03.405Z,2.5
2018-12-26T03:44:03.095Z,3.6
2018-12-26T03:45:03.303Z,2.5
2018-12-26T03:46:03.526Z,3.6
2018-12-26T03:47:03.697Z,2.5
2018-12-26T03:48:03.136Z,5
2018-12-26T03:49:03.892Z,5
2018-12-26T03:50:03.776Z,6.1
2018-12-26T03:51:08.182Z,5
2018-12-26T03:52:03.714Z,5
2018-12-26T03:53:03.836Z,6.1
2018-12-26T03:54:03.988Z,6.1
2018-12-26T03:55:03.521Z,5
2018-12-26T03:56:02.952Z,6.1
2018-12-26T03:57:07.014Z,6.1
2018-12-26T03:58:03.323Z,5
2018-12-26T03:59:03.848Z,3.6
2018-12-26T04:00:03.064Z,5
2018-12-26T04:01:03.706Z,5
2018-12-26T04:02:02.955Z,6.1
2018-12-26T04:03:04.066Z,5
2018-12-26T04:04:03.720Z,3.6
2018-12-26T04:05:04.011Z,2.5
2018-12-26T04:06:03.107Z,5
2018-12-26T04:07:03.272Z,5
2018-12-26T04:08:03.548Z,5
2018-12-26T04:09:03.166Z,6.1
2018-12-26T04:10:03.662Z,3.6
2018-12-26T04:11:03.574Z,5
2018-12-26T04:12:03.437Z,3.6
2018-12-26T04:13:03.316Z,5
2018-12-26T04:14:03.875Z,2.5
2018-12-26T04:15:03.404Z,2.5
2018-12-26T04:16:03.533Z,3.6
2018-12-26T04:17:03.352Z,3.6
2018-12-26T04:18:03.164Z,5
2018-12-26T04:19:03.149Z,5
2018-12-26T04:20:03.918Z,5
2018-12-26T04:21:03.513Z,2.5
2018-12-26T04:22:03.442Z,2.5
2018-12-26T04:23:03.579Z,1.1
2018-12-26T04:24:03.439Z,1.1
2018-12-26T04:25:03.979Z,1.1
2018-12-26T04:26:03.675Z,2.5
2018-12-26T04:27:03.306Z,3.6
2018-12-26T04:28:03.989Z,3.6
2018-12-26T04:29:03.011Z,3.6
2018-12-26T04:30:03.878Z,3.6
2018-12-26T04:31:03.121Z,3.6
2018-12-26T04:32:04.176Z,2.5
2018-12-26T04:33:03.655Z,2.5
2018-12-26T04:34:03.452Z,3.6
2018-12-26T04:35:03.642Z,3.6
2018-12-26T04:36:02.943Z,1.1
2018-12-26T04:37:03.559Z,3.6
2018-12-26T04:38:03.710Z,2.5
2018-12-26T04:39:03.290Z,3.6
2018-12-26T04:40:04.105Z,2.5
2018-12-26T04:41:03.653Z,0
2018-12-26T04:42:03.154Z,0
2018-12-26T04:43:03.232Z,2.5
2018-12-26T04:44:03.506Z,1.1
2018-12-26T04:45:03.461Z,1.1
2018-12-26T04:46:03.218Z,0
2018-12-26T04:47:03.862Z,0
2018-12-26T04:48:03.673Z,0
2018-12-26T04:49:03.104Z,0
2018-12-26T04:50:03.806Z,0
2018-12-26T04:51:03.195Z,2.5
2018-12-26T04:52:03.949Z,2.5
2018-12-26T04:53:03.563Z,2.5
2018-12-26T04:54:03.532Z,3.6
2018-12-26T04:55:03.482Z,3.6
2018-12-26T04:56:03.695Z,3.6
2018-12-26T04:57:03.580Z,3.6
2018-12-26T04:58:03.640Z,5
2018-12-26T04:59:03.430Z,5
2018-12-26T05:00:04.089Z,5
2018-12-26T05:01:03.806Z,5
2018-12-26T05:02:03.068Z,5
2018-12-26T05:03:03.449Z,5
2018-12-26T05:04:03.523Z,5
2018-12-26T05:05:03.284Z,5
2018-12-26T05:06:03.386Z,5
2018-12-26T05:07:03.437Z,5
2018-12-26T05:08:03.265Z,5
2018-12-26T05:09:03.278Z,2.5
2018-12-26T05:10:04.026Z,2.5
2018-12-26T05:11:03.061Z,2.5
2018-12-26T05:12:05.887Z,3.6
2018-12-26T05:13:03.111Z,2.5
2018-12-26T05:14:03.130Z,3.6
2018-12-26T05:15:03.678Z,3.6
2018-12-26T05:16:03.385Z,3.6
2018-12-26T05:17:03.101Z,3.6
2018-12-26T05:18:03.819Z,5
2018-12-26T05:19:03.451Z,3.6
2018-12-26T05:20:03.530Z,3.6
2018-12-26T05:21:02.998Z,3.6
2018-12-26T05:22:03.503Z,2.5
2018-12-26T05:23:03.375Z,2.5
2018-12-26T05:24:03.044Z,3.6
2018-12-26T05:25:03.884Z,3.6
2018-12-26T05:26:03.742Z,2.5
2018-12-26T05:27:03.864Z,2.5
2018-12-26T05:28:03.071Z,2.5
2018-12-26T05:29:03.805Z,2.5
2018-12-26T05:30:03.500Z,3.6
2018-12-26T05:31:03.656Z,2.5
2018-12-26T05:32:03.331Z,1.1
2018-12-26T05:33:03.347Z,1.1
2018-12-26T05:34:03.573Z,1.1
2018-12-26T05:35:03.647Z,2.5
2018-12-26T05:36:03.321Z,2.5
2018-12-26T05:37:03.069Z,2.5
2018-12-26T05:38:03.535Z,2.5
2018-12-26T05:39:03.340Z,2.5
2018-12-26T05:40:03.750Z,1.1
2018-12-26T05:41:03.562Z,1.1
2018-12-26T05:42:03.310Z,1.1
2018-12-26T05:43:03.524Z,1.1
2018-12-26T05:44:03.420Z,1.1
2018-12-26T05:45:04.701Z,1.1
2018-12-26T05:46:03.489Z,1.1
2018-12-26T05:47:04.057Z,1.1
2018-12-26T05:48:03.737Z,1.1
2018-12-26T05:49:03.493Z,1.1
2018-12-26T05:50:03.743Z,1.1
2018-12-26T05:51:04.285Z,1.1
2018-12-26T05:52:03.120Z,1.1
2018-12-26T05:53:03.208Z,1.1
2018-12-26T05:54:03.334Z,0
2018-12-26T05:55:03.398Z,1.1
2018-12-26T05:56:03.498Z,1.1
2018-12-26T05:57:03.817Z,1.1
2018-12-26T05:58:03.787Z,1.1
2018-12-26T05:59:03.563Z,1.1
2018-12-26T06:00:03.800Z,0
2018-12-26T06:01:04.007Z,0
2018-12-26T06:02:03.722Z,0
2018-12-26T06:03:03.397Z,1.1
2018-12-26T06:04:03.818Z,0
2018-12-26T06:05:03.724Z,0
2018-12-26T06:06:03.341Z,2.5
2018-12-26T06:07:03.259Z,1.1
2018-12-26T06:08:03.173Z,1.1
2018-12-26T06:09:03.774Z,1.1
2018-12-26T06:10:03.509Z,0
2018-12-26T06:11:03.343Z,0
2018-12-26T06:12:03.292Z,0
2018-12-26T06:13:03.396Z,0
2018-12-26T06:14:03.234Z,1.1
2018-12-26T06:15:03.804Z,2.5
2018-12-26T06:16:03.177Z,1.1
2018-12-26T06:17:03.766Z,1.1
2018-12-26T06:18:03.570Z,1.1
2018-12-26T06:19:04.462Z,0
2018-12-26T06:20:03.590Z,0
2018-12-26T06:21:03.696Z,0
2018-12-26T06:22:05.914Z,0
2018-12-26T06:23:03.033Z,0
2018-12-26T06:24:03.687Z,0
2018-12-26T06:25:03.336Z,0
2018-12-26T06:26:03.214Z,0
2018-12-26T06:27:03.944Z,0
2018-12-26T06:28:03.784Z,0
2018-12-26T06:29:03.263Z,1.1
2018-12-26T06:30:03.507Z,1.1
2018-12-26T06:31:03.041Z,0
2018-12-26T06:32:03.395Z,1.1
2018-12-26T06:33:03.643Z,1.1
2018-12-26T06:34:03.233Z,0
2018-12-26T06:35:03.930Z,1.1
2018-12-26T06:36:03.891Z,1.1
2018-12-26T06:37:03.025Z,1.1
2018-12-26T06:38:03.032Z,1.1
2018-12-26T06:39:03.570Z,1.1
2018-12-26T06:40:03.340Z,1.1
2018-12-26T06:41:03.544Z,1.1
2018-12-26T06:42:03.713Z,0
2018-12-26T06:43:03.151Z,1.1
2018-12-26T06:44:03.695Z,2.5
2018-12-26T06:45:03.742Z,2.5
2018-12-26T06:46:03.307Z,0
2018-12-26T06:47:03.560Z,0
2018-12-26T06:48:03.969Z,0
2018-12-26T06:49:03.621Z,0
2018-12-26T06:50:03.100Z,0
2018-12-26T06:51:03.700Z,0
2018-12-26T06:52:03.527Z,0
2018-12-26T06:53:03.580Z,1.1
2018-12-26T06:54:03.084Z,0
2018-12-26T06:55:03.123Z,0
2018-12-26T06:56:03.511Z,0
2018-12-26T06:57:04.919Z,0
2018-12-26T06:58:03.248Z,0
2018-12-26T06:59:04.075Z,0
2018-12-26T07:00:03.242Z,1.1
2018-12-26T07:01:03.462Z,1.1
2018-12-26T07:02:03.472Z,1.1
2018-12-26T07:03:02.980Z,1.1
2018-12-26T07:04:03.462Z,1.1
2018-12-26T07:05:03.235Z,1.1
2018-12-26T07:06:03.707Z,1.1
2018-12-26T07:07:03.327Z,1.1
2018-12-26T07:08:03.780Z,1.1
2018-12-26T07:09:03.798Z,0
2018-12-26T07:10:03.515Z,0
2018-12-26T07:11:02.857Z,0
2018-12-26T07:12:03.578Z,0
2018-12-26T07:13:03.110Z,0
2018-12-26T07:14:03.017Z,1.1
2018-12-26T07:15:03.374Z,0
2018-12-26T07:16:03.059Z,0
2018-12-26T07:17:04.081Z,0
2018-12-26T07:18:03.334Z,0
2018-12-26T07:19:03.243Z,0
2018-12-26T07:20:03.743Z,0
2018-12-26T07:21:03.364Z,0
2018-12-26T07:22:03.122Z,1.1
2018-12-26T07:23:03.250Z,1.1
2018-12-26T07:24:03.096Z,2.5
2018-12-26T07:25:03.607Z,2.5
2018-12-26T07:26:03.359Z,1.1
2018-12-26T07:27:03.137Z,1.1
2018-12-26T07:28:09.769Z,1.1
2018-12-26T07:29:03.232Z,0
2018-12-26T07:30:03.548Z,1.1
2018-12-26T07:31:03.594Z,0
2018-12-26T07:32:03.731Z,0
2018-12-26T07:33:03.186Z,0
2018-12-26T07:34:03.745Z,0
2018-12-26T07:35:03.421Z,0
2018-12-26T07:36:03.830Z,0
2018-12-26T07:37:03.302Z,0
2018-12-26T07:38:03.115Z,1.1
2018-12-26T07:39:03.283Z,1.1
2018-12-26T07:40:04.019Z,1.1
2018-12-26T07:41:03.461Z,1.1
2018-12-26T07:42:03.067Z,1.1
2018-12-26T07:43:03.208Z,1.1
2018-12-26T07:44:03.096Z,1.1
2018-12-26T07:45:03.058Z,0
2018-12-26T07:46:03.551Z,0
2018-12-26T07:47:03.942Z,0
2018-12-26T07:48:03.234Z,0
2018-12-26T07:49:03.812Z,1.1
2018-12-26T07:50:03.894Z,1.1
2018-12-26T07:51:03.903Z,1.1
2018-12-26T07:52:04.417Z,1.1
2018-12-26T07:53:02.950Z,1.1
2018-12-26T07:54:03.596Z,1.1
2018-12-26T07:55:04.031Z,1.1
2018-12-26T07:56:03.217Z,1.1
2018-12-26T07:57:03.706Z,1.1
2018-12-26T07:58:03.814Z,1.1
2018-12-26T07:59:03.088Z,1.1
2018-12-26T08:00:03.417Z,1.1
2018-12-26T08:01:03.641Z,1.1
2018-12-26T08:02:03.369Z,0
2018-12-26T08:03:03.853Z,0
2018-12-26T08:04:03.254Z,0
2018-12-26T08:05:03.226Z,0
2018-12-26T08:06:03.842Z,0
2018-12-26T08:07:03.429Z,1.1
2018-12-26T08:08:02.903Z,1.1
2018-12-26T08:09:03.943Z,1.1
2018-12-26T08:10:03.142Z,1.1
2018-12-26T08:11:02.997Z,2.5
2018-12-26T08:12:02.969Z,2.5
2018-12-26T08:13:03.188Z,2.5
2018-12-26T08:14:03.873Z,1.1
2018-12-26T08:15:11.202Z,1.1
2018-12-26T08:16:03.799Z,1.1
2018-12-26T08:17:03.234Z,1.1
2018-12-26T08:18:03.143Z,1.1
2018-12-26T08:19:03.242Z,1.1
2018-12-26T08:20:03.422Z,1.1
2018-12-26T08:21:03.243Z,1.1
2018-12-26T08:22:03.891Z,2.5
2018-12-26T08:23:03.566Z,2.5
2018-12-26T08:24:03.435Z,2.5
2018-12-26T08:25:03.339Z,2.5
2018-12-26T08:26:03.334Z,2.5
2018-12-26T08:27:03.857Z,2.5
2018-12-26T08:28:02.959Z,2.5
2018-12-26T08:29:03.308Z,1.1
2018-12-26T08:30:03.192Z,1.1
2018-12-26T08:31:03.459Z,1.1
2018-12-26T08:32:03.603Z,2.5
2018-12-26T08:33:03.066Z,1.1
2018-12-26T08:34:03.880Z,2.5
2018-12-26T08:35:03.202Z,2.5
2018-12-26T08:36:03.134Z,2.5
2018-12-26T08:37:03.543Z,2.5
2018-12-26T08:38:03.937Z,3.6
2018-12-26T08:39:03.669Z,3.6
2018-12-26T08:40:03.113Z,3.6
2018-12-26T08:41:03.728Z,5
2018-12-26T08:42:03.168Z,5
2018-12-26T08:43:03.338Z,5
2018-12-26T08:44:03.203Z,5
2018-12-26T08:45:03.921Z,5
2018-12-26T08:46:03.237Z,5
2018-12-26T08:47:03.878Z,6.1
2018-12-26T08:48:03.339Z,6.1
2018-12-26T08:49:03.303Z,6.1
2018-12-26T08:50:03.062Z,3.6
2018-12-26T08:51:03.824Z,3.6
2018-12-26T08:52:03.579Z,3.6
2018-12-26T08:53:03.245Z,3.6
2018-12-26T08:54:03.798Z,1.1
2018-12-26T08:55:03.920Z,2.5
2018-12-26T08:56:04.359Z,5
2018-12-26T08:57:03.726Z,5
2018-12-26T08:58:03.445Z,3.6
2018-12-26T08:59:03.234Z,3.6
2018-12-26T09:00:03.878Z,6.1
2018-12-26T09:01:03.245Z,6.1
2018-12-26T09:02:03.056Z,6.1
2018-12-26T09:03:03.641Z,6.1
2018-12-26T09:04:03.695Z,6.1
2018-12-26T09:05:03.887Z,6.1
2018-12-26T09:06:03.453Z,6.1
2018-12-26T09:07:03.482Z,6.1
2018-12-26T09:08:02.903Z,6.1
2018-12-26T09:09:04.038Z,7.2
2018-12-26T09:10:03.754Z,7.2
2018-12-26T09:11:03.080Z,6.1
2018-12-26T09:12:04.112Z,6.1
2018-12-26T09:13:02.982Z,6.1
2018-12-26T09:14:03.930Z,5
2018-12-26T09:15:03.614Z,5
2018-12-26T09:16:03.804Z,3.6
2018-12-26T09:17:03.162Z,3.6
2018-12-26T09:18:03.783Z,2.5
2018-12-26T09:19:03.594Z,2.5
2018-12-26T09:20:03.860Z,2.5
2018-12-26T09:21:03.663Z,2.5
2018-12-26T09:22:03.162Z,5
2018-12-26T09:23:03.641Z,6.1
2018-12-26T09:24:04.213Z,6.1
2018-12-26T09:25:03.372Z,6.1
2018-12-26T09:26:03.852Z,5
2018-12-26T09:27:03.487Z,3.6
2018-12-26T09:28:03.002Z,6.1
2018-12-26T09:29:03.820Z,5
2018-12-26T09:30:03.053Z,7.2
2018-12-26T09:31:03.533Z,6.1
2018-12-26T09:32:03.832Z,7.2
2018-12-26T09:33:02.819Z,8.6
2018-12-26T09:34:03.432Z,8.6
2018-12-26T09:35:03.520Z,7.2
2018-12-26T09:36:03.200Z,7.2
2018-12-26T09:37:03.157Z,5
2018-12-26T09:38:03.421Z,6.1
2018-12-26T09:39:03.380Z,6.1
2018-12-26T09:40:03.380Z,6.1
2018-12-26T09:41:03.089Z,6.1
2018-12-26T09:42:03.112Z,8.6
2018-12-26T09:43:03.680Z,7.2
2018-12-26T09:44:03.428Z,7.2
2018-12-26T09:45:03.754Z,8.6
2018-12-26T09:46:03.379Z,7.2
2018-12-26T09:47:03.485Z,11.2
2018-12-26T09:48:03.194Z,11.2
2018-12-26T09:49:03.817Z,8.6
2018-12-26T09:50:03.396Z,8.6
2018-12-26T09:51:03.513Z,7.2
2018-12-26T09:52:03.202Z,6.1
2018-12-26T09:53:04.112Z,5
2018-12-26T09:54:03.845Z,6.1
2018-12-26T09:55:03.790Z,6.1
2018-12-26T09:56:03.722Z,7.2
2018-12-26T09:57:03.819Z,7.2
2018-12-26T09:58:03.560Z,8.6
2018-12-26T09:59:03.424Z,7.2
2018-12-26T10:00:03.767Z,7.2
2018-12-26T10:01:03.061Z,8.6
2018-12-26T10:02:03.765Z,8.6
2018-12-26T10:03:04.002Z,7.2
2018-12-26T10:04:03.772Z,7.2
2018-12-26T10:05:05.946Z,7.2
2018-12-26T10:06:03.888Z,5
2018-12-26T10:07:03.283Z,7.2
2018-12-26T10:08:03.556Z,6.1
2018-12-26T10:09:03.457Z,7.2
2018-12-26T10:10:03.378Z,7.2
2018-12-26T10:11:03.084Z,7.2
2018-12-26T10:12:03.816Z,7.2
2018-12-26T10:13:04.066Z,7.2
2018-12-26T10:14:03.698Z,6.1
2018-12-26T10:15:03.719Z,6.1
2018-12-26T10:16:03.360Z,5
2018-12-26T10:17:03.787Z,5
2018-12-26T10:18:03.354Z,5
2018-12-26T10:19:03.151Z,5
2018-12-26T10:20:03.021Z,7.2
2018-12-26T10:21:03.760Z,7.2
2018-12-26T10:22:03.863Z,7.2
2018-12-26T10:23:03.613Z,7.2
2018-12-26T10:24:04.025Z,7.2
2018-12-26T10:25:03.210Z,7.2
2018-12-26T10:26:03.137Z,7.2
2018-12-26T10:27:03.072Z,7.2
2018-12-26T10:28:03.703Z,7.2
2018-12-26T10:29:03.185Z,6.1
2018-12-26T10:30:03.682Z,5
2018-12-26T10:31:03.063Z,5
2018-12-26T10:32:02.999Z,6.1
2018-12-26T10:33:03.330Z,7.2
2018-12-26T10:34:04.156Z,7.2
2018-12-26T10:35:03.221Z,6.1
2018-12-26T10:36:03.119Z,5
2018-12-26T10:37:02.997Z,5
2018-12-26T10:38:02.996Z,5
2018-12-26T10:39:03.177Z,5
2018-12-26T10:40:03.316Z,5
2018-12-26T10:41:03.413Z,5
2018-12-26T10:42:02.983Z,5
2018-12-26T10:43:04.180Z,5
2018-12-26T10:44:03.528Z,5
2018-12-26T10:45:03.505Z,5
2018-12-26T10:46:03.438Z,5
2018-12-26T10:47:02.928Z,5
2018-12-26T10:48:03.323Z,5
2018-12-26T10:49:03.464Z,5
2018-12-26T10:50:03.360Z,5
2018-12-26T10:51:03.062Z,7.2
2018-12-26T10:52:03.370Z,6.1
2018-12-26T10:53:03.411Z,6.1
2018-12-26T10:54:03.723Z,5
2018-12-26T10:55:03.377Z,5
2018-12-26T10:56:03.813Z,5
2018-12-26T10:57:03.025Z,5
2018-12-26T10:58:03.190Z,6.1
2018-12-26T10:59:10.789Z,3.6
2018-12-26T11:00:03.127Z,3.6
2018-12-26T11:01:03.373Z,3.6
2018-12-26T11:02:02.903Z,3.6
2018-12-26T11:03:03.626Z,3.6
2018-12-26T11:04:03.889Z,3.6
2018-12-26T11:05:03.154Z,3.6
2018-12-26T11:06:03.403Z,3.6
2018-12-26T11:07:03.874Z,3.6
2018-12-26T11:08:03.525Z,3.6
2018-12-26T11:09:03.530Z,2.5
2018-12-26T11:10:03.365Z,3.6
2018-12-26T11:11:03.884Z,3.6
2018-12-26T11:12:03.441Z,3.6
2018-12-26T11:13:03.449Z,6.1
2018-12-26T11:14:04.330Z,2.5
2018-12-26T11:15:04.112Z,2.5
2018-12-26T11:16:03.385Z,3.6
2018-12-26T11:17:03.886Z,2.5
2018-12-26T11:18:03.172Z,2.5
2018-12-26T11:19:04.390Z,2.5
2018-12-26T11:20:02.964Z,3.6
2018-12-26T11:21:03.128Z,1.1
2018-12-26T11:22:06.041Z,2.5
2018-12-26T11:23:03.859Z,3.6
2018-12-26T11:24:04.362Z,2.5
2018-12-26T11:25:03.419Z,2.5
2018-12-26T11:26:03.397Z,2.5
2018-12-26T11:27:03.790Z,3.6
2018-12-26T11:28:03.494Z,3.6
2018-12-26T11:29:03.854Z,5
2018-12-26T11:30:03.209Z,3.6
2018-12-26T11:31:03.477Z,3.6
2018-12-26T11:32:03.335Z,3.6
2018-12-26T11:33:02.943Z,3.6
2018-12-26T11:34:03.547Z,2.5
2018-12-26T11:35:05.139Z,3.6
2018-12-26T11:36:03.440Z,3.6
2018-12-26T11:37:03.451Z,5
2018-12-26T11:38:03.605Z,3.6
2018-12-26T11:39:03.200Z,2.5
2018-12-26T11:40:03.693Z,2.5
2018-12-26T11:41:05.559Z,5
2018-12-26T11:42:03.026Z,2.5
2018-12-26T11:43:04.483Z,2.5
2018-12-26T11:44:03.670Z,3.6
2018-12-26T11:45:03.688Z,2.5
2018-12-26T11:46:03.224Z,6.1
2018-12-26T11:47:03.593Z,6.1
2018-12-26T11:48:03.885Z,5
2018-12-26T11:49:03.909Z,6.1
2018-12-26T11:50:03.038Z,5
2018-12-26T11:51:04.329Z,3.6
2018-12-26T11:52:03.811Z,5
2018-12-26T11:53:03.873Z,2.5
2018-12-26T11:54:03.706Z,3.6
2018-12-26T11:55:03.885Z,5
2018-12-26T11:56:03.202Z,5
2018-12-26T11:57:03.930Z,2.5
2018-12-26T11:58:04.126Z,1.1
2018-12-26T11:59:04.051Z,1.1
2018-12-26T12:00:03.223Z,2.5
2018-12-26T12:01:03.675Z,2.5
2018-12-26T12:02:03.324Z,2.5
2018-12-26T12:03:03.022Z,3.6
2018-12-26T12:04:03.598Z,2.5
2018-12-26T12:05:03.238Z,3.6
2018-12-26T12:06:03.485Z,3.6
2018-12-26T12:07:03.244Z,3.6
2018-12-26T12:08:03.174Z,3.6
2018-12-26T12:09:03.279Z,3.6
2018-12-26T12:10:03.211Z,3.6
2018-12-26T12:11:03.753Z,3.6
2018-12-26T12:12:03.596Z,3.6
2018-12-26T12:13:03.600Z,1.1
2018-12-26T12:14:03.833Z,5
2018-12-26T12:15:04.149Z,2.5
2018-12-26T12:16:03.482Z,6.1
2018-12-26T12:17:03.949Z,6.1
2018-12-26T12:18:04.033Z,2.5
2018-12-26T12:19:03.092Z,2.5
2018-12-26T12:20:03.190Z,5
2018-12-26T12:21:04.791Z,7.2
2018-12-26T12:22:03.831Z,7.2
2018-12-26T12:23:03.821Z,7.2
2018-12-26T12:24:03.700Z,5
2018-12-26T12:25:03.947Z,3.6
2018-12-26T12:26:02.906Z,5
2018-12-26T12:27:03.543Z,6.1
2018-12-26T12:28:03.043Z,6.1
2018-12-26T12:29:04.441Z,2.5
2018-12-26T12:30:03.467Z,5
2018-12-26T12:31:03.312Z,6.1
2018-12-26T12:32:03.730Z,5
2018-12-26T12:33:03.136Z,7.2
2018-12-26T12:34:03.972Z,5
2018-12-26T12:35:03.862Z,5
2018-12-26T12:36:03.690Z,6.1
2018-12-26T12:37:03.523Z,6.1
2018-12-26T12:38:03.871Z,0
2018-12-26T12:39:03.658Z,5
2018-12-26T12:40:03.883Z,7.2
2018-12-26T12:41:03.629Z,6.1
2018-12-26T12:42:03.650Z,8.6
2018-12-26T12:43:03.009Z,7.2
2018-12-26T12:44:03.630Z,5
2018-12-26T12:45:03.298Z,6.1
2018-12-26T12:46:03.742Z,7.2
2018-12-26T12:47:03.666Z,7.2
2018-12-26T12:48:03.858Z,8.6
2018-12-26T12:49:03.396Z,8.6
2018-12-26T12:50:03.978Z,5
2018-12-26T12:51:03.487Z,7.2
2018-12-26T12:52:03.697Z,5
2018-12-26T12:53:03.354Z,7.2
2018-12-26T12:54:03.536Z,6.1
2018-12-26T12:55:03.907Z,6.1
2018-12-26T12:56:12.594Z,7.2
2018-12-26T12:57:03.831Z,7.2
2018-12-26T12:58:03.811Z,6.1
2018-12-26T12:59:03.179Z,6.1
2018-12-26T13:00:08.101Z,6.1
2018-12-26T13:01:03.159Z,6.1
2018-12-26T13:02:03.529Z,6.1
2018-12-26T13:03:03.504Z,6.1
2018-12-26T13:04:03.322Z,6.1
2018-12-26T13:05:03.472Z,6.1
2018-12-26T13:06:03.349Z,6.1
2018-12-26T13:07:03.878Z,6.1
2018-12-26T13:08:04.045Z,6.1
2018-12-26T13:09:03.375Z,5
2018-12-26T13:10:04.270Z,3.6
2018-12-26T13:11:03.581Z,5
2018-12-26T13:12:03.457Z,5
2018-12-26T13:13:03.637Z,6.1
2018-12-26T13:14:03.165Z,6.1
2018-12-26T13:15:03.733Z,3.6
2018-12-26T13:16:03.730Z,6.1
2018-12-26T13:17:03.265Z,6.1
2018-12-26T13:18:03.562Z,5
2018-12-26T13:19:03.735Z,7.2
2018-12-26T13:20:03.112Z,7.2
2018-12-26T13:21:03.998Z,6.1
2018-12-26T13:22:03.799Z,6.1
2018-12-26T13:23:04.281Z,6.1
2018-12-26T13:24:04.083Z,8.6
2018-12-26T13:25:03.405Z,9.7
2018-12-26T13:26:03.968Z,12.2
2018-12-26T13:27:03.427Z,8.6
2018-12-26T13:28:03.946Z,6.1
2018-12-26T13:29:03.658Z,6.1
2018-12-26T13:30:04.229Z,6.1
2018-12-26T13:31:05.712Z,5
2018-12-26T13:32:04.039Z,6.1
2018-12-26T13:33:04.190Z,6.1
2018-12-26T13:34:03.425Z,5
2018-12-26T13:35:04.413Z,3.6
2018-12-26T13:36:03.989Z,2.5
2018-12-26T13:37:03.307Z,2.5
2018-12-26T13:38:03.456Z,1.1
2018-12-26T13:39:04.309Z,1.1
2018-12-26T13:40:03.636Z,3.6
2018-12-26T13:41:03.466Z,1.1
2018-12-26T13:42:03.537Z,5
2018-12-26T13:43:02.830Z,7.2
2018-12-26T13:44:03.842Z,9.7
2018-12-26T13:45:03.320Z,7.2
2018-12-26T13:46:03.585Z,6.1
2018-12-26T13:47:03.714Z,8.6
2018-12-26T13:48:04.050Z,7.2
2018-12-26T13:49:03.980Z,7.2
2018-12-26T13:50:03.506Z,8.6
2018-12-26T13:51:03.707Z,7.2
2018-12-26T13:52:03.419Z,9.7
2018-12-26T13:53:03.628Z,6.1
2018-12-26T13:54:03.713Z,7.2
2018-12-26T13:55:03.290Z,7.2
2018-12-26T13:56:03.203Z,3.6
2018-12-26T13:57:03.357Z,3.6
2018-12-26T13:58:03.585Z,5
2018-12-26T13:59:03.947Z,7.2
2018-12-26T14:00:03.813Z,9.7
2018-12-26T14:01:03.483Z,7.2